sensor_id;sensor_type;location;lat;lon;timestamp;P1;durP1;ratioP1;P2;durP2;ratioP2
36663;SDS011;53333;51.976;20.144;2023-04-05T00:00:14;22.52;;;12.05;;
36663;SDS011;53333;51.976;20.144;2023-04-05T00:02:47;21.92;;;12.25;;
36663;SDS011;53333;51.976;20.144;2023-04-05T00:05:20;20.80;;;11.63;;
36663;SDS011;53333;51.976;20.144;2023-04-05T00:07:59;18.52;;;10.90;;
36663;SDS011;53333;51.976;20.144;2023-04-05T00:10:33;21.25;;;11.88;;
36663;SDS011;53333;51.976;20.144;2023-04-05T00:13:08;19.20;;;11.05;;
36663;SDS011;53333;51.976;20.144;2023-04-05T00:15:41;22.75;;;11.65;;
36663;SDS011;53333;51.976;20.144;2023-04-05T00:18:14;23.90;;;11.45;;
36663;SDS011;53333;51.976;20.144;2023-04-05T00:20:54;17.63;;;11.20;;
36663;SDS011;53333;51.976;20.144;2023-04-05T00:23:29;23.75;;;12.40;;
36663;SDS011;53333;51.976;20.144;2023-04-05T00:26:07;22.02;;;11.95;;
36663;SDS011;53333;51.976;20.144;2023-04-05T00:28:42;24.15;;;12.38;;
36663;SDS011;53333;51.976;20.144;2023-04-05T00:31:15;25.90;;;11.05;;
36663;SDS011;53333;51.976;20.144;2023-04-05T00:33:48;20.33;;;11.27;;
36663;SDS011;53333;51.976;20.144;2023-04-05T00:36:22;20.43;;;11.50;;
36663;SDS011;53333;51.976;20.144;2023-04-05T00:38:54;20.10;;;10.93;;
36663;SDS011;53333;51.976;20.144;2023-04-05T00:41:27;22.90;;;10.38;;
36663;SDS011;53333;51.976;20.144;2023-04-05T00:44:02;20.20;;;10.15;;
36663;SDS011;53333;51.976;20.144;2023-04-05T00:46:36;19.15;;;10.18;;
36663;SDS011;53333;51.976;20.144;2023-04-05T00:49:09;20.10;;;11.10;;
36663;SDS011;53333;51.976;20.144;2023-04-05T00:51:42;17.65;;;10.85;;
36663;SDS011;53333;51.976;20.144;2023-04-05T00:54:17;18.58;;;10.48;;
36663;SDS011;53333;51.976;20.144;2023-04-05T00:56:50;20.08;;;10.07;;
36663;SDS011;53333;51.976;20.144;2023-04-05T00:59:25;19.40;;;10.43;;
36663;SDS011;53333;51.976;20.144;2023-04-05T01:01:59;17.10;;;10.18;;
36663;SDS011;53333;51.976;20.144;2023-04-05T01:04:37;22.13;;;11.77;;
36663;SDS011;53333;51.976;20.144;2023-04-05T01:07:22;22.58;;;11.65;;
36663;SDS011;53333;51.976;20.144;2023-04-05T01:10:00;20.58;;;11.00;;
36663;SDS011;53333;51.976;20.144;2023-04-05T01:12:36;23.40;;;11.30;;
36663;SDS011;53333;51.976;20.144;2023-04-05T01:17:44;19.42;;;10.15;;
36663;SDS011;53333;51.976;20.144;2023-04-05T01:20:17;15.40;;;9.27;;
36663;SDS011;53333;51.976;20.144;2023-04-05T01:22:58;26.50;;;11.18;;
36663;SDS011;53333;51.976;20.144;2023-04-05T01:26:08;18.20;;;10.27;;
36663;SDS011;53333;51.976;20.144;2023-04-05T01:29:26;19.05;;;10.65;;
36663;SDS011;53333;51.976;20.144;2023-04-05T01:32:29;17.50;;;9.57;;
36663;SDS011;53333;51.976;20.144;2023-04-05T01:35:21;21.20;;;12.43;;
36663;SDS011;53333;51.976;20.144;2023-04-05T01:38:02;20.95;;;10.48;;
36663;SDS011;53333;51.976;20.144;2023-04-05T01:40:36;24.20;;;10.52;;
36663;SDS011;53333;51.976;20.144;2023-04-05T01:43:12;19.70;;;11.77;;
36663;SDS011;53333;51.976;20.144;2023-04-05T01:45:46;15.77;;;9.80;;
36663;SDS011;53333;51.976;20.144;2023-04-05T01:48:19;25.63;;;11.63;;
36663;SDS011;53333;51.976;20.144;2023-04-05T01:50:55;17.92;;;10.45;;
36663;SDS011;53333;51.976;20.144;2023-04-05T01:53:27;21.33;;;11.57;;
36663;SDS011;53333;51.976;20.144;2023-04-05T01:56:00;17.88;;;10.73;;
36663;SDS011;53333;51.976;20.144;2023-04-05T01:58:33;21.00;;;10.43;;
36663;SDS011;53333;51.976;20.144;2023-04-05T02:01:08;24.52;;;11.20;;
36663;SDS011;53333;51.976;20.144;2023-04-05T02:03:41;17.38;;;11.13;;
36663;SDS011;53333;51.976;20.144;2023-04-05T02:06:14;15.77;;;10.77;;
36663;SDS011;53333;51.976;20.144;2023-04-05T02:08:47;15.98;;;10.85;;
36663;SDS011;53333;51.976;20.144;2023-04-05T02:11:20;18.17;;;11.57;;
36663;SDS011;53333;51.976;20.144;2023-04-05T02:13:53;17.30;;;10.93;;
36663;SDS011;53333;51.976;20.144;2023-04-05T02:16:27;21.10;;;11.13;;
36663;SDS011;53333;51.976;20.144;2023-04-05T02:19:03;20.25;;;11.75;;
36663;SDS011;53333;51.976;20.144;2023-04-05T02:21:37;18.08;;;10.02;;
36663;SDS011;53333;51.976;20.144;2023-04-05T02:26:43;24.73;;;11.20;;
36663;SDS011;53333;51.976;20.144;2023-04-05T02:29:16;17.30;;;11.23;;
36663;SDS011;53333;51.976;20.144;2023-04-05T02:31:51;18.98;;;11.75;;
36663;SDS011;53333;51.976;20.144;2023-04-05T02:34:24;18.83;;;11.43;;
36663;SDS011;53333;51.976;20.144;2023-04-05T02:36:57;22.00;;;12.30;;
36663;SDS011;53333;51.976;20.144;2023-04-05T02:39:30;23.05;;;11.75;;
36663;SDS011;53333;51.976;20.144;2023-04-05T02:42:03;19.80;;;11.43;;
36663;SDS011;53333;51.976;20.144;2023-04-05T02:44:36;20.53;;;11.80;;
36663;SDS011;53333;51.976;20.144;2023-04-05T02:47:10;20.17;;;12.18;;
36663;SDS011;53333;51.976;20.144;2023-04-05T02:49:48;19.20;;;11.82;;
36663;SDS011;53333;51.976;20.144;2023-04-05T02:52:21;23.55;;;12.40;;
36663;SDS011;53333;51.976;20.144;2023-04-05T02:54:54;18.30;;;11.27;;
36663;SDS011;53333;51.976;20.144;2023-04-05T02:57:32;26.35;;;12.23;;
36663;SDS011;53333;51.976;20.144;2023-04-05T03:00:20;17.67;;;10.70;;
36663;SDS011;53333;51.976;20.144;2023-04-05T03:02:55;20.58;;;12.15;;
36663;SDS011;53333;51.976;20.144;2023-04-05T03:05:28;23.70;;;12.00;;
36663;SDS011;53333;51.976;20.144;2023-04-05T03:10:36;21.42;;;11.18;;
36663;SDS011;53333;51.976;20.144;2023-04-05T03:13:17;22.10;;;13.00;;
36663;SDS011;53333;51.976;20.144;2023-04-05T03:15:52;23.30;;;12.13;;
36663;SDS011;53333;51.976;20.144;2023-04-05T03:18:28;23.98;;;12.52;;
36663;SDS011;53333;51.976;20.144;2023-04-05T03:21:08;19.10;;;12.73;;
36663;SDS011;53333;51.976;20.144;2023-04-05T03:23:54;22.45;;;12.25;;
36663;SDS011;53333;51.976;20.144;2023-04-05T03:26:32;23.50;;;13.07;;
36663;SDS011;53333;51.976;20.144;2023-04-05T03:31:41;17.05;;;11.95;;
36663;SDS011;53333;51.976;20.144;2023-04-05T03:34:19;19.92;;;12.75;;
36663;SDS011;53333;51.976;20.144;2023-04-05T03:36:54;20.80;;;12.55;;
36663;SDS011;53333;51.976;20.144;2023-04-05T03:39:36;24.67;;;13.50;;
36663;SDS011;53333;51.976;20.144;2023-04-05T03:42:09;25.98;;;12.38;;
36663;SDS011;53333;51.976;20.144;2023-04-05T03:44:42;22.93;;;12.77;;
36663;SDS011;53333;51.976;20.144;2023-04-05T03:47:15;29.17;;;13.77;;
36663;SDS011;53333;51.976;20.144;2023-04-05T03:49:50;25.07;;;12.63;;
36663;SDS011;53333;51.976;20.144;2023-04-05T03:52:23;26.85;;;13.73;;
36663;SDS011;53333;51.976;20.144;2023-04-05T03:54:56;25.23;;;14.90;;
36663;SDS011;53333;51.976;20.144;2023-04-05T03:57:30;33.90;;;18.27;;
36663;SDS011;53333;51.976;20.144;2023-04-05T04:00:10;37.65;;;19.70;;
36663;SDS011;53333;51.976;20.144;2023-04-05T04:02:47;39.13;;;20.95;;
36663;SDS011;53333;51.976;20.144;2023-04-05T04:05:25;45.05;;;22.90;;
36663;SDS011;53333;51.976;20.144;2023-04-05T04:07:58;46.20;;;23.42;;
36663;SDS011;53333;51.976;20.144;2023-04-05T04:10:33;41.42;;;23.20;;
36663;SDS011;53333;51.976;20.144;2023-04-05T04:13:07;49.30;;;21.45;;
36663;SDS011;53333;51.976;20.144;2023-04-05T04:15:40;38.03;;;19.67;;
36663;SDS011;53333;51.976;20.144;2023-04-05T04:18:20;43.55;;;21.38;;
36663;SDS011;53333;51.976;20.144;2023-04-05T04:21:13;37.67;;;18.98;;
36663;SDS011;53333;51.976;20.144;2023-04-05T04:23:59;43.70;;;20.15;;
36663;SDS011;53333;51.976;20.144;2023-04-05T04:26:50;41.35;;;19.90;;
36663;SDS011;53333;51.976;20.144;2023-04-05T04:29:34;46.97;;;22.77;;
36663;SDS011;53333;51.976;20.144;2023-04-05T04:32:28;49.72;;;21.77;;
36663;SDS011;53333;51.976;20.144;2023-04-05T04:35:33;53.15;;;23.27;;
36663;SDS011;53333;51.976;20.144;2023-04-05T04:38:22;50.75;;;22.88;;
36663;SDS011;53333;51.976;20.144;2023-04-05T04:41:26;50.80;;;24.60;;
36663;SDS011;53333;51.976;20.144;2023-04-05T04:44:06;40.72;;;21.83;;
36663;SDS011;53333;51.976;20.144;2023-04-05T04:46:45;44.97;;;21.17;;
36663;SDS011;53333;51.976;20.144;2023-04-05T04:49:38;39.28;;;18.35;;
36663;SDS011;53333;51.976;20.144;2023-04-05T04:52:11;36.95;;;18.58;;
36663;SDS011;53333;51.976;20.144;2023-04-05T04:54:46;33.88;;;18.38;;
36663;SDS011;53333;51.976;20.144;2023-04-05T04:57:19;39.10;;;18.50;;
36663;SDS011;53333;51.976;20.144;2023-04-05T04:59:52;37.40;;;19.98;;
36663;SDS011;53333;51.976;20.144;2023-04-05T05:02:25;35.47;;;18.33;;
36663;SDS011;53333;51.976;20.144;2023-04-05T05:05:01;32.67;;;17.58;;
36663;SDS011;53333;51.976;20.144;2023-04-05T05:07:35;45.88;;;17.67;;
36663;SDS011;53333;51.976;20.144;2023-04-05T05:12:46;36.13;;;17.77;;
36663;SDS011;53333;51.976;20.144;2023-04-05T05:15:19;47.03;;;19.20;;
36663;SDS011;53333;51.976;20.144;2023-04-05T05:17:52;33.23;;;16.87;;
36663;SDS011;53333;51.976;20.144;2023-04-05T05:20:27;37.15;;;17.63;;
36663;SDS011;53333;51.976;20.144;2023-04-05T05:23:00;34.22;;;15.48;;
36663;SDS011;53333;51.976;20.144;2023-04-05T05:25:36;42.38;;;18.73;;
36663;SDS011;53333;51.976;20.144;2023-04-05T05:28:09;49.90;;;20.23;;
36663;SDS011;53333;51.976;20.144;2023-04-05T05:30:42;39.03;;;17.42;;
36663;SDS011;53333;51.976;20.144;2023-04-05T05:33:15;44.78;;;19.85;;
36663;SDS011;53333;51.976;20.144;2023-04-05T05:35:48;50.03;;;22.13;;
36663;SDS011;53333;51.976;20.144;2023-04-05T05:38:23;58.42;;;21.35;;
36663;SDS011;53333;51.976;20.144;2023-04-05T05:40:57;48.00;;;22.08;;
36663;SDS011;53333;51.976;20.144;2023-04-05T05:43:30;45.65;;;19.75;;
36663;SDS011;53333;51.976;20.144;2023-04-05T05:46:03;42.00;;;21.45;;
36663;SDS011;53333;51.976;20.144;2023-04-05T05:48:39;45.88;;;20.77;;
36663;SDS011;53333;51.976;20.144;2023-04-05T05:53:46;42.42;;;19.27;;
36663;SDS011;53333;51.976;20.144;2023-04-05T05:56:20;40.30;;;19.45;;
36663;SDS011;53333;51.976;20.144;2023-04-05T05:58:53;39.80;;;18.42;;
36663;SDS011;53333;51.976;20.144;2023-04-05T06:01:26;38.08;;;18.85;;
36663;SDS011;53333;51.976;20.144;2023-04-05T06:03:59;39.65;;;18.63;;
36663;SDS011;53333;51.976;20.144;2023-04-05T06:06:32;35.38;;;19.00;;
36663;SDS011;53333;51.976;20.144;2023-04-05T06:09:08;40.55;;;18.52;;
36663;SDS011;53333;51.976;20.144;2023-04-05T06:11:42;31.75;;;16.83;;
36663;SDS011;53333;51.976;20.144;2023-04-05T06:14:27;34.15;;;16.52;;
36663;SDS011;53333;51.976;20.144;2023-04-05T06:17:00;39.75;;;18.15;;
36663;SDS011;53333;51.976;20.144;2023-04-05T06:19:33;31.63;;;16.60;;
36663;SDS011;53333;51.976;20.144;2023-04-05T06:22:06;27.38;;;16.42;;
36663;SDS011;53333;51.976;20.144;2023-04-05T06:24:39;32.85;;;17.40;;
36663;SDS011;53333;51.976;20.144;2023-04-05T06:27:13;37.25;;;15.55;;
36663;SDS011;53333;51.976;20.144;2023-04-05T06:29:46;34.28;;;16.13;;
36663;SDS011;53333;51.976;20.144;2023-04-05T06:32:19;29.95;;;15.30;;
36663;SDS011;53333;51.976;20.144;2023-04-05T06:34:52;33.72;;;12.90;;
36663;SDS011;53333;51.976;20.144;2023-04-05T06:37:25;20.27;;;12.60;;
36663;SDS011;53333;51.976;20.144;2023-04-05T06:39:57;25.48;;;13.27;;
36663;SDS011;53333;51.976;20.144;2023-04-05T06:42:32;29.60;;;13.70;;
36663;SDS011;53333;51.976;20.144;2023-04-05T06:45:08;27.52;;;13.15;;
36663;SDS011;53333;51.976;20.144;2023-04-05T06:50:15;28.38;;;12.73;;
36663;SDS011;53333;51.976;20.144;2023-04-05T06:52:48;38.67;;;17.05;;
36663;SDS011;53333;51.976;20.144;2023-04-05T06:55:20;35.55;;;19.50;;
36663;SDS011;53333;51.976;20.144;2023-04-05T06:57:55;28.80;;;14.10;;
36663;SDS011;53333;51.976;20.144;2023-04-05T07:00:28;32.20;;;15.88;;
36663;SDS011;53333;51.976;20.144;2023-04-05T07:03:01;34.65;;;15.77;;
36663;SDS011;53333;51.976;20.144;2023-04-05T07:05:34;24.10;;;13.38;;
36663;SDS011;53333;51.976;20.144;2023-04-05T07:08:06;29.08;;;14.02;;
36663;SDS011;53333;51.976;20.144;2023-04-05T07:10:39;24.45;;;12.80;;
36663;SDS011;53333;51.976;20.144;2023-04-05T07:13:14;30.63;;;13.82;;
36663;SDS011;53333;51.976;20.144;2023-04-05T07:15:48;25.15;;;12.60;;
36663;SDS011;53333;51.976;20.144;2023-04-05T07:18:21;29.75;;;12.77;;
36663;SDS011;53333;51.976;20.144;2023-04-05T07:20:55;15.05;;;8.90;;
36663;SDS011;53333;51.976;20.144;2023-04-05T07:23:30;16.80;;;9.73;;
36663;SDS011;53333;51.976;20.144;2023-04-05T07:26:03;17.02;;;8.60;;
36663;SDS011;53333;51.976;20.144;2023-04-05T07:28:37;12.80;;;7.68;;
36663;SDS011;53333;51.976;20.144;2023-04-05T07:31:10;17.92;;;7.43;;
36663;SDS011;53333;51.976;20.144;2023-04-05T07:33:46;14.07;;;7.20;;
36663;SDS011;53333;51.976;20.144;2023-04-05T07:36:19;11.23;;;6.27;;
36663;SDS011;53333;51.976;20.144;2023-04-05T07:38:52;12.05;;;6.45;;
36663;SDS011;53333;51.976;20.144;2023-04-05T07:41:26;9.95;;;5.97;;
36663;SDS011;53333;51.976;20.144;2023-04-05T07:44:04;14.65;;;7.05;;
36663;SDS011;53333;51.976;20.144;2023-04-05T07:46:37;11.70;;;5.88;;
36663;SDS011;53333;51.976;20.144;2023-04-05T07:49:17;13.38;;;6.60;;
36663;SDS011;53333;51.976;20.144;2023-04-05T07:51:52;14.40;;;6.20;;
36663;SDS011;53333;51.976;20.144;2023-04-05T07:54:26;9.25;;;6.18;;
36663;SDS011;53333;51.976;20.144;2023-04-05T07:56:59;14.73;;;7.40;;
36663;SDS011;53333;51.976;20.144;2023-04-05T08:02:07;13.13;;;7.15;;
36663;SDS011;53333;51.976;20.144;2023-04-05T08:04:45;7.72;;;5.07;;
36663;SDS011;53333;51.976;20.144;2023-04-05T08:07:18;7.20;;;4.65;;
36663;SDS011;53333;51.976;20.144;2023-04-05T08:09:51;9.73;;;6.43;;
36663;SDS011;53333;51.976;20.144;2023-04-05T08:15:05;9.48;;;4.65;;
36663;SDS011;53333;51.976;20.144;2023-04-05T08:17:39;7.93;;;3.83;;
36663;SDS011;53333;51.976;20.144;2023-04-05T08:20:12;8.63;;;3.00;;
36663;SDS011;53333;51.976;20.144;2023-04-05T08:22:45;6.40;;;3.63;;
36663;SDS011;53333;51.976;20.144;2023-04-05T08:25:18;7.03;;;3.33;;
36663;SDS011;53333;51.976;20.144;2023-04-05T08:30:26;3.92;;;2.15;;
36663;SDS011;53333;51.976;20.144;2023-04-05T08:32:58;3.13;;;2.10;;
36663;SDS011;53333;51.976;20.144;2023-04-05T08:35:31;5.83;;;2.50;;
36663;SDS011;53333;51.976;20.144;2023-04-05T08:38:14;4.97;;;2.80;;
36663;SDS011;53333;51.976;20.144;2023-04-05T08:40:47;7.80;;;3.07;;
36663;SDS011;53333;51.976;20.144;2023-04-05T08:43:22;4.85;;;2.28;;
36663;SDS011;53333;51.976;20.144;2023-04-05T08:46:01;5.53;;;2.28;;
36663;SDS011;53333;51.976;20.144;2023-04-05T08:48:40;5.57;;;3.40;;
36663;SDS011;53333;51.976;20.144;2023-04-05T08:51:16;6.77;;;3.60;;
36663;SDS011;53333;51.976;20.144;2023-04-05T08:53:50;8.00;;;3.90;;
36663;SDS011;53333;51.976;20.144;2023-04-05T08:56:25;6.57;;;3.30;;
36663;SDS011;53333;51.976;20.144;2023-04-05T08:59:00;5.82;;;3.38;;
36663;SDS011;53333;51.976;20.144;2023-04-05T09:01:38;8.57;;;2.95;;
36663;SDS011;53333;51.976;20.144;2023-04-05T09:04:22;4.45;;;3.25;;
36663;SDS011;53333;51.976;20.144;2023-04-05T09:06:58;5.07;;;3.10;;
36663;SDS011;53333;51.976;20.144;2023-04-05T09:09:35;6.72;;;3.20;;
36663;SDS011;53333;51.976;20.144;2023-04-05T09:12:09;6.10;;;3.20;;
36663;SDS011;53333;51.976;20.144;2023-04-05T09:14:42;5.55;;;3.08;;
36663;SDS011;53333;51.976;20.144;2023-04-05T09:17:17;5.97;;;3.60;;
36663;SDS011;53333;51.976;20.144;2023-04-05T09:19:50;6.07;;;3.80;;
36663;SDS011;53333;51.976;20.144;2023-04-05T09:22:23;7.43;;;4.17;;
36663;SDS011;53333;51.976;20.144;2023-04-05T09:24:56;9.27;;;3.83;;
36663;SDS011;53333;51.976;20.144;2023-04-05T09:27:29;5.60;;;3.90;;
36663;SDS011;53333;51.976;20.144;2023-04-05T09:30:03;8.50;;;3.67;;
36663;SDS011;53333;51.976;20.144;2023-04-05T09:32:54;6.97;;;3.78;;
36663;SDS011;53333;51.976;20.144;2023-04-05T09:35:29;5.43;;;3.45;;
36663;SDS011;53333;51.976;20.144;2023-04-05T09:38:03;4.53;;;3.28;;
36663;SDS011;53333;51.976;20.144;2023-04-05T09:40:39;5.60;;;3.55;;
36663;SDS011;53333;51.976;20.144;2023-04-05T09:49:01;4.65;;;3.60;;
36663;SDS011;53333;51.976;20.144;2023-04-05T09:51:37;5.88;;;3.78;;
36663;SDS011;53333;51.976;20.144;2023-04-05T09:54:13;5.18;;;3.70;;
36663;SDS011;53333;51.976;20.144;2023-04-05T09:56:52;8.57;;;3.17;;
36663;SDS011;53333;51.976;20.144;2023-04-05T09:59:28;4.82;;;2.58;;
36663;SDS011;53333;51.976;20.144;2023-04-05T10:02:01;5.22;;;3.20;;
36663;SDS011;53333;51.976;20.144;2023-04-05T10:04:40;5.07;;;2.63;;
36663;SDS011;53333;51.976;20.144;2023-04-05T10:07:14;5.88;;;3.10;;
36663;SDS011;53333;51.976;20.144;2023-04-05T10:09:48;4.68;;;2.95;;
36663;SDS011;53333;51.976;20.144;2023-04-05T10:12:23;8.85;;;3.67;;
36663;SDS011;53333;51.976;20.144;2023-04-05T10:14:57;5.93;;;3.50;;
36663;SDS011;53333;51.976;20.144;2023-04-05T10:17:33;7.18;;;3.75;;
36663;SDS011;53333;51.976;20.144;2023-04-05T10:20:13;6.13;;;3.50;;
36663;SDS011;53333;51.976;20.144;2023-04-05T10:22:58;5.78;;;3.40;;
36663;SDS011;53333;51.976;20.144;2023-04-05T10:25:43;8.73;;;3.13;;
36663;SDS011;53333;51.976;20.144;2023-04-05T10:28:25;6.18;;;3.30;;
36663;SDS011;53333;51.976;20.144;2023-04-05T10:31:09;6.43;;;3.60;;
36663;SDS011;53333;51.976;20.144;2023-04-05T10:33:59;5.68;;;3.50;;
36663;SDS011;53333;51.976;20.144;2023-04-05T10:36:44;5.32;;;3.75;;
36663;SDS011;53333;51.976;20.144;2023-04-05T10:39:22;5.07;;;3.28;;
36663;SDS011;53333;51.976;20.144;2023-04-05T10:41:59;4.57;;;3.35;;
36663;SDS011;53333;51.976;20.144;2023-04-05T10:44:33;7.13;;;3.85;;
36663;SDS011;53333;51.976;20.144;2023-04-05T10:47:08;5.70;;;3.70;;
36663;SDS011;53333;51.976;20.144;2023-04-05T10:49:46;8.45;;;3.58;;
36663;SDS011;53333;51.976;20.144;2023-04-05T10:52:22;4.28;;;3.17;;
36663;SDS011;53333;51.976;20.144;2023-04-05T10:54:56;7.38;;;3.97;;
36663;SDS011;53333;51.976;20.144;2023-04-05T10:57:30;7.13;;;3.28;;
36663;SDS011;53333;51.976;20.144;2023-04-05T11:00:05;6.28;;;3.40;;
36663;SDS011;53333;51.976;20.144;2023-04-05T11:02:39;6.68;;;3.80;;
36663;SDS011;53333;51.976;20.144;2023-04-05T11:05:28;5.97;;;3.47;;
36663;SDS011;53333;51.976;20.144;2023-04-05T11:08:05;5.35;;;3.03;;
36663;SDS011;53333;51.976;20.144;2023-04-05T11:10:39;4.00;;;2.47;;
36663;SDS011;53333;51.976;20.144;2023-04-05T11:13:13;7.18;;;3.58;;
36663;SDS011;53333;51.976;20.144;2023-04-05T11:15:46;3.83;;;2.58;;
36663;SDS011;53333;51.976;20.144;2023-04-05T11:18:43;4.47;;;2.60;;
36663;SDS011;53333;51.976;20.144;2023-04-05T11:21:21;6.53;;;3.13;;
36663;SDS011;53333;51.976;20.144;2023-04-05T11:23:59;4.15;;;2.70;;
36663;SDS011;53333;51.976;20.144;2023-04-05T11:26:55;5.13;;;2.70;;
36663;SDS011;53333;51.976;20.144;2023-04-05T11:29:47;4.47;;;2.92;;
36663;SDS011;53333;51.976;20.144;2023-04-05T11:32:38;3.50;;;2.63;;
36663;SDS011;53333;51.976;20.144;2023-04-05T11:35:12;4.93;;;2.80;;
36663;SDS011;53333;51.976;20.144;2023-04-05T11:37:52;3.22;;;2.20;;
36663;SDS011;53333;51.976;20.144;2023-04-05T11:40:27;6.10;;;2.47;;
36663;SDS011;53333;51.976;20.144;2023-04-05T11:43:01;9.35;;;3.70;;
36663;SDS011;53333;51.976;20.144;2023-04-05T11:45:39;9.80;;;5.38;;
36663;SDS011;53333;51.976;20.144;2023-04-05T11:48:15;4.18;;;2.42;;
36663;SDS011;53333;51.976;20.144;2023-04-05T11:50:49;4.43;;;2.40;;
36663;SDS011;53333;51.976;20.144;2023-04-05T11:53:22;4.72;;;2.85;;
36663;SDS011;53333;51.976;20.144;2023-04-05T11:58:37;3.75;;;2.38;;
36663;SDS011;53333;51.976;20.144;2023-04-05T12:01:11;3.70;;;2.20;;
36663;SDS011;53333;51.976;20.144;2023-04-05T12:03:45;3.15;;;1.95;;
36663;SDS011;53333;51.976;20.144;2023-04-05T12:06:25;6.00;;;2.25;;
36663;SDS011;53333;51.976;20.144;2023-04-05T12:08:58;5.10;;;2.55;;
36663;SDS011;53333;51.976;20.144;2023-04-05T12:11:31;3.50;;;2.33;;
36663;SDS011;53333;51.976;20.144;2023-04-05T12:14:03;5.97;;;2.78;;
36663;SDS011;53333;51.976;20.144;2023-04-05T12:16:36;4.95;;;2.35;;
36663;SDS011;53333;51.976;20.144;2023-04-05T12:19:22;8.68;;;2.92;;
36663;SDS011;53333;51.976;20.144;2023-04-05T12:21:55;3.00;;;2.22;;
36663;SDS011;53333;51.976;20.144;2023-04-05T12:24:28;3.70;;;2.53;;
36663;SDS011;53333;51.976;20.144;2023-04-05T12:27:01;5.68;;;2.53;;
36663;SDS011;53333;51.976;20.144;2023-04-05T12:29:34;7.95;;;2.33;;
36663;SDS011;53333;51.976;20.144;2023-04-05T12:32:07;4.88;;;3.00;;
36663;SDS011;53333;51.976;20.144;2023-04-05T12:34:46;4.88;;;2.50;;
36663;SDS011;53333;51.976;20.144;2023-04-05T12:37:19;6.40;;;2.60;;
36663;SDS011;53333;51.976;20.144;2023-04-05T12:39:53;6.43;;;2.50;;
36663;SDS011;53333;51.976;20.144;2023-04-05T12:42:29;6.00;;;2.63;;
36663;SDS011;53333;51.976;20.144;2023-04-05T12:45:04;4.47;;;2.65;;
36663;SDS011;53333;51.976;20.144;2023-04-05T12:47:47;5.85;;;3.13;;
36663;SDS011;53333;51.976;20.144;2023-04-05T12:50:26;6.90;;;2.80;;
36663;SDS011;53333;51.976;20.144;2023-04-05T12:53:04;4.82;;;3.15;;
36663;SDS011;53333;51.976;20.144;2023-04-05T12:55:41;4.65;;;2.47;;
36663;SDS011;53333;51.976;20.144;2023-04-05T12:58:16;4.03;;;2.50;;
36663;SDS011;53333;51.976;20.144;2023-04-05T13:00:49;3.17;;;2.42;;
36663;SDS011;53333;51.976;20.144;2023-04-05T13:03:24;3.22;;;2.47;;
36663;SDS011;53333;51.976;20.144;2023-04-05T13:05:59;6.03;;;2.55;;
36663;SDS011;53333;51.976;20.144;2023-04-05T13:08:32;5.90;;;2.88;;
36663;SDS011;53333;51.976;20.144;2023-04-05T13:11:05;6.82;;;2.83;;
36663;SDS011;53333;51.976;20.144;2023-04-05T13:13:38;4.43;;;2.10;;
36663;SDS011;53333;51.976;20.144;2023-04-05T13:16:11;5.63;;;2.85;;
36663;SDS011;53333;51.976;20.144;2023-04-05T13:18:44;3.25;;;2.38;;
36663;SDS011;53333;51.976;20.144;2023-04-05T13:21:19;7.35;;;2.80;;
36663;SDS011;53333;51.976;20.144;2023-04-05T13:23:52;5.10;;;3.67;;
36663;SDS011;53333;51.976;20.144;2023-04-05T13:26:25;5.53;;;2.73;;
36663;SDS011;53333;51.976;20.144;2023-04-05T13:28:58;3.97;;;3.05;;
36663;SDS011;53333;51.976;20.144;2023-04-05T13:31:32;6.10;;;2.75;;
36663;SDS011;53333;51.976;20.144;2023-04-05T13:34:05;11.73;;;3.10;;
36663;SDS011;53333;51.976;20.144;2023-04-05T13:39:14;6.82;;;3.60;;
36663;SDS011;53333;51.976;20.144;2023-04-05T13:41:54;6.40;;;3.10;;
36663;SDS011;53333;51.976;20.144;2023-04-05T13:44:32;6.78;;;2.80;;
36663;SDS011;53333;51.976;20.144;2023-04-05T13:47:11;5.20;;;2.95;;
36663;SDS011;53333;51.976;20.144;2023-04-05T13:49:45;5.60;;;2.63;;
36663;SDS011;53333;51.976;20.144;2023-04-05T13:52:19;3.88;;;3.03;;
36663;SDS011;53333;51.976;20.144;2023-04-05T13:54:52;6.85;;;3.10;;
36663;SDS011;53333;51.976;20.144;2023-04-05T13:57:34;5.78;;;3.47;;
36663;SDS011;53333;51.976;20.144;2023-04-05T14:00:07;3.57;;;2.67;;
36663;SDS011;53333;51.976;20.144;2023-04-05T14:02:43;6.55;;;3.10;;
36663;SDS011;53333;51.976;20.144;2023-04-05T14:05:16;4.97;;;3.15;;
36663;SDS011;53333;51.976;20.144;2023-04-05T14:07:51;8.77;;;2.88;;
36663;SDS011;53333;51.976;20.144;2023-04-05T14:10:24;12.95;;;7.55;;
36663;SDS011;53333;51.976;20.144;2023-04-05T14:12:57;10.05;;;5.25;;
36663;SDS011;53333;51.976;20.144;2023-04-05T14:15:30;4.63;;;3.35;;
36663;SDS011;53333;51.976;20.144;2023-04-05T14:18:04;4.53;;;3.20;;
36663;SDS011;53333;51.976;20.144;2023-04-05T14:21:08;4.25;;;3.38;;
36663;SDS011;53333;51.976;20.144;2023-04-05T14:23:47;4.93;;;3.60;;
36663;SDS011;53333;51.976;20.144;2023-04-05T14:26:23;6.03;;;3.78;;
36663;SDS011;53333;51.976;20.144;2023-04-05T14:28:57;3.78;;;2.60;;
36663;SDS011;53333;51.976;20.144;2023-04-05T14:31:30;6.10;;;3.20;;
36663;SDS011;53333;51.976;20.144;2023-04-05T14:34:03;3.30;;;2.78;;
36663;SDS011;53333;51.976;20.144;2023-04-05T14:36:36;4.18;;;2.42;;
36663;SDS011;53333;51.976;20.144;2023-04-05T14:39:10;5.40;;;3.10;;
36663;SDS011;53333;51.976;20.144;2023-04-05T14:41:43;4.40;;;2.90;;
36663;SDS011;53333;51.976;20.144;2023-04-05T14:44:22;7.05;;;3.40;;
36663;SDS011;53333;51.976;20.144;2023-04-05T14:46:57;4.25;;;3.08;;
36663;SDS011;53333;51.976;20.144;2023-04-05T14:49:30;9.05;;;3.92;;
36663;SDS011;53333;51.976;20.144;2023-04-05T14:52:03;4.45;;;3.38;;
36663;SDS011;53333;51.976;20.144;2023-04-05T14:54:37;5.05;;;3.45;;
36663;SDS011;53333;51.976;20.144;2023-04-05T14:57:10;8.25;;;3.85;;
36663;SDS011;53333;51.976;20.144;2023-04-05T14:59:43;3.72;;;2.90;;
36663;SDS011;53333;51.976;20.144;2023-04-05T15:02:16;5.40;;;3.33;;
36663;SDS011;53333;51.976;20.144;2023-04-05T15:04:56;10.15;;;3.15;;
36663;SDS011;53333;51.976;20.144;2023-04-05T15:07:40;7.45;;;3.30;;
36663;SDS011;53333;51.976;20.144;2023-04-05T15:10:19;5.57;;;3.08;;
36663;SDS011;53333;51.976;20.144;2023-04-05T15:12:52;5.82;;;3.50;;
36663;SDS011;53333;51.976;20.144;2023-04-05T15:15:25;4.77;;;3.33;;
36663;SDS011;53333;51.976;20.144;2023-04-05T15:18:00;7.20;;;3.58;;
36663;SDS011;53333;51.976;20.144;2023-04-05T15:20:33;8.10;;;3.88;;
36663;SDS011;53333;51.976;20.144;2023-04-05T15:23:07;5.95;;;3.28;;
36663;SDS011;53333;51.976;20.144;2023-04-05T15:25:42;5.20;;;3.33;;
36663;SDS011;53333;51.976;20.144;2023-04-05T15:28:15;6.50;;;3.10;;
36663;SDS011;53333;51.976;20.144;2023-04-05T15:30:48;5.20;;;3.00;;
36663;SDS011;53333;51.976;20.144;2023-04-05T15:33:21;3.83;;;3.00;;
36663;SDS011;53333;51.976;20.144;2023-04-05T15:35:54;5.80;;;2.90;;
36663;SDS011;53333;51.976;20.144;2023-04-05T15:38:27;7.00;;;4.10;;
36663;SDS011;53333;51.976;20.144;2023-04-05T15:41:01;7.27;;;3.23;;
36663;SDS011;53333;51.976;20.144;2023-04-05T15:43:34;5.35;;;3.08;;
36663;SDS011;53333;51.976;20.144;2023-04-05T15:46:09;6.75;;;3.38;;
36663;SDS011;53333;51.976;20.144;2023-04-05T15:48:42;5.03;;;3.20;;